• Join FlightAware (Why Join?)
  • Login
  • US Flag 
11:16PM EDT


 

Airport Tracker/Info


-or-


 

Live Flight TrackerFlight Track Log ✈ TNV190 ✈ 14-Jun-2013 ✈ PADQ - PANC

Flight Track Log - Related Links

Times and Time Zones

All times are in EDT time to prevent confusion due to time zone crossing. See the TNV190 flight status page for this flight to view local times or setup timezone preferences in your user account.

Time Position Orientation Groundspeed Altitude Reporting Facility
EDT Latitude Longitude Course Direction KTS MPH feet Rate Location/Type
03:57PM 58.3167 -152.0000 18° North 220 253 12,000  Level Anchorage Center
03:58PM 58.3833 -151.9500 21° North 240 276 12,000  Level Anchorage Center
03:59PM 58.4500 -151.9167 15° North 240 276 12,000  Level Anchorage Center
04:00PM 58.5167 -151.8833 15° North 240 276 12,000  Level Anchorage Center
04:01PM 58.5667 -151.8500 19° North 230 265 12,000  Level Anchorage Center
04:02PM 58.5824 -151.8371 18° North  Level FlightAware Approximate
04:02PM 58.6333 -151.8000 21° North 230 265 12,000  Level Anchorage Center
04:03PM 58.6422 -151.7990 18° North  Level FlightAware Approximate
04:03PM 58.6833 -151.7667 19° North 220 253 12,000  Level Anchorage Center
04:04PM 58.7500 -151.7167 21° North 230 265 12,000  Level Anchorage Center
04:05PM 58.8167 -151.6833 15° North 230 265 12,000  Level Anchorage Center
04:06PM 58.8667 -151.6333 27° Northeast 230 265 12,000  Level Anchorage Center
04:07PM 58.9333 -151.6167 North 230 265 12,000  Level Anchorage Center
04:08PM 58.9833 -151.5833 19° North 220 253 12,000  Level Anchorage Center
04:09PM 59.0500 -151.5333 21° North 230 265 12,000  Level Anchorage Center
04:10PM 59.1167 -151.5000 14° North 230 265 12,000  Level Anchorage Center
04:11PM 59.1667 -151.4667 19° North 220 253 12,000  Level Anchorage Center
04:12PM 59.2333 -151.4333 14° North 230 265 12,000  Level Anchorage Center
04:13PM 59.2833 -151.3833 27° Northeast 220 253 12,000  Level Anchorage Center
04:14PM 59.3500 -151.3333 21° North 230 265 12,000  Level Anchorage Center
04:15PM 59.4167 -151.3000 14° North 230 265 12,000  Level Anchorage Center
04:17PM 59.4667 -151.2667 19° North 230 265 12,000  Level Anchorage Center
04:18PM 59.5500 -151.2167 17° North 220 253 12,000  Level Anchorage Center
04:19PM 59.6000 -151.1833 19° North 230 265 12,000  Level Anchorage Center
04:20PM 59.6667 -151.1500 14° North 230 265 12,000  Level Anchorage Center
04:21PM 59.7167 -151.1000 27° Northeast 220 253 12,000  Level Anchorage Center
04:22PM 59.7833 -151.0667 14° North 220 253 12,000  Level Anchorage Center
04:23PM 59.8500 -151.0167 21° North 230 265 12,000  Level Anchorage Center
04:24PM 59.9000 -150.9833 18° North 220 253 12,000  Level Anchorage Center
04:25PM 59.9667 -150.9500 14° North 220 253 12,000  Level Anchorage Center
04:26PM 60.0167 -150.9167 18° North 230 265 12,000  Level Anchorage Center
04:27PM 60.0833 -150.8667 21° North 230 265 12,000  Level Anchorage Center
04:28PM 60.1333 -150.8167 26° Northeast 230 265 12,100  Climbing Anchorage Center
04:29PM 60.2000 -150.7833 14° North 220 253 12,000 -60 Descending Anchorage Center
04:30PM 60.2500 -150.7500 18° North 230 265 12,000  Level Anchorage Center
04:31PM 60.3167 -150.7000 20° North 220 253 12,000  Level Anchorage Center
04:32PM 60.3667 -150.6500 26° Northeast 230 265 12,000  Level Anchorage Center
04:33PM 60.4333 -150.6167 14° North 230 265 12,000 -60 Level Anchorage Center
04:34PM 60.5000 -150.5833 14° North 230 265 11,900 -180 Descending Anchorage Center
04:35PM 60.5500 -150.5500 18° North 230 265 11,700 -240 Descending Anchorage Center
04:37PM 60.6593 -150.4494 21° North  Level FlightAware Approximate
04:44PM 61.0541 -150.0627 26° Northeast  Level FlightAware Approximate
04:45PM 61.1104 -150.0063 26° Northeast  Level FlightAware Approximate
04:46PM 61.1667 -149.9502 270° West  Level FlightAware Approximate
04:47PM 61.1667 -149.9833 270° West  Level FlightAware Approximate
04:48PM 61.1741 -149.9982 270° West  Level Estimated
04:49PM 61.1741 -149.9982 270° West  Level Estimated
04:50PM 61.1741 -149.9982 270° West  Level Estimated
04:51PM 61.1741 -149.9982 270° West  Level Estimated
04:52PM 61.1741 -149.9982 270° West  Level Estimated
04:53PM 61.1741 -149.9982 270° West  Level Estimated
04:54PM 61.1741 -149.9982 270° West  Level Estimated
04:55PM 61.1741 -149.9982 270° West  Level Estimated
04:56PM 61.1741 -149.9982 270° West  Level Estimated
04:57PM 61.1741 -149.9982 270° West  Level Estimated
04:58PM 61.1741 -149.9982 270° West  Level Estimated
04:59PM 61.1741 -149.9982 270° West  Level Estimated
05:00PM 61.1741 -149.9982 270° West  Level Estimated
05:01PM 61.1741 -149.9982 270° West  Level Estimated